createdAt,value
2022-12-17T00:02:33.122Z,65.35
2022-12-17T00:06:07.760Z,65.60
2022-12-17T00:09:31.129Z,65.94
2022-12-17T00:12:54.105Z,66.07
2022-12-17T00:16:19.718Z,66.14
2022-12-17T00:19:43.276Z,66.05
2022-12-17T00:23:06.641Z,66.21
2022-12-17T00:26:30.009Z,66.25
2022-12-17T00:29:53.277Z,65.94
2022-12-17T00:33:18.995Z,65.94
2022-12-17T00:36:42.668Z,65.87
2022-12-17T00:40:20.781Z,65.90
2022-12-17T00:43:44.458Z,66.07
2022-12-17T00:47:07.744Z,66.09
2022-12-17T00:50:31.189Z,66.42
2022-12-17T00:53:54.353Z,66.40
2022-12-17T00:57:18.333Z,66.08
2022-12-17T01:00:41.767Z,66.13
2022-12-17T01:04:04.783Z,66.55
2022-12-17T01:07:27.929Z,66.91
2022-12-17T01:10:51.186Z,67.15
2022-12-17T01:14:14.450Z,67.48
2022-12-17T01:17:37.920Z,67.41
2022-12-17T01:21:00.879Z,67.32
2022-12-17T01:24:33.666Z,67.59
2022-12-17T01:27:56.731Z,67.29
2022-12-17T01:31:20.322Z,67.05
2022-12-17T01:34:40.082Z,67.17
2022-12-17T01:38:03.966Z,66.96
2022-12-17T01:41:27.835Z,67.07
2022-12-17T01:45:13.218Z,67.15
2022-12-17T01:48:36.419Z,67.23
2022-12-17T01:51:59.749Z,67.28
2022-12-17T01:55:25.269Z,67.27
2022-12-17T01:58:49.658Z,67.37
2022-12-17T02:02:12.894Z,67.56
2022-12-17T02:05:37.441Z,67.56
2022-12-17T02:09:11.521Z,67.80
2022-12-17T02:12:44.121Z,68.09
2022-12-17T02:16:13.021Z,67.49
2022-12-17T02:19:48.578Z,67.10
2022-12-17T02:23:20.537Z,67.09
2022-12-17T02:26:54.893Z,67.28
2022-12-17T02:30:20.788Z,66.66
2022-12-17T02:33:43.233Z,66.45
2022-12-17T02:37:06.703Z,66.22
2022-12-17T02:40:31.515Z,65.96
2022-12-17T02:43:55.723Z,65.82
2022-12-17T02:47:21.513Z,65.79
2022-12-17T02:50:44.983Z,65.83
2022-12-17T02:54:13.062Z,65.75
2022-12-17T02:57:38.084Z,66.11
2022-12-17T03:01:04.392Z,65.92
2022-12-17T03:04:27.876Z,65.43
2022-12-17T03:07:51.334Z,65.00
2022-12-17T03:11:25.868Z,64.85
2022-12-17T03:14:49.030Z,65.10
2022-12-17T03:18:12.910Z,64.78
2022-12-17T03:21:36.176Z,64.59
2022-12-17T03:24:59.488Z,64.25
2022-12-17T03:28:26.213Z,64.06
2022-12-17T03:31:49.553Z,63.60
2022-12-17T03:35:12.824Z,64.00
2022-12-17T03:38:36.083Z,63.70
2022-12-17T03:41:59.250Z,63.35
2022-12-17T03:45:23.021Z,63.14
2022-12-17T03:48:46.285Z,63.27
2022-12-17T03:52:09.756Z,63.67
2022-12-17T03:55:33.076Z,63.57
2022-12-17T03:58:56.308Z,63.28
2022-12-17T04:02:20.649Z,63.21
2022-12-17T04:05:44.554Z,63.53
2022-12-17T04:09:07.820Z,63.52
2022-12-17T04:12:30.980Z,63.33
2022-12-17T04:15:54.251Z,63.24
2022-12-17T04:19:17.542Z,63.17
2022-12-17T04:22:48.863Z,62.44
2022-12-17T04:26:11.797Z,62.22
2022-12-17T04:29:34.984Z,62.41
2022-12-17T04:32:57.874Z,62.43
2022-12-17T04:36:21.306Z,62.55
2022-12-17T04:39:44.572Z,62.81
2022-12-17T04:43:07.657Z,62.73
2022-12-17T04:46:30.842Z,62.75
2022-12-17T04:49:54.369Z,62.08
2022-12-17T04:53:21.932Z,62.35
2022-12-17T04:56:46.014Z,62.49
2022-12-17T05:00:09.077Z,62.11
2022-12-17T05:03:35.120Z,62.17
2022-12-17T05:06:58.575Z,62.49
2022-12-17T05:10:27.368Z,62.40
2022-12-17T05:13:50.632Z,62.48
2022-12-17T05:17:13.703Z,62.31
2022-12-17T05:20:36.957Z,62.50
2022-12-17T05:23:56.534Z,62.65
2022-12-17T05:27:19.801Z,62.42
2022-12-17T05:30:43.161Z,62.04
2022-12-17T05:34:06.431Z,62.08
2022-12-17T05:37:30.009Z,62.41
2022-12-17T05:40:53.780Z,62.38
2022-12-17T05:44:17.047Z,62.14
2022-12-17T05:47:40.616Z,62.40
2022-12-17T05:51:07.463Z,62.14
2022-12-17T05:54:30.833Z,62.02
2022-12-17T05:57:56.578Z,61.92
2022-12-17T06:01:22.119Z,62.18
2022-12-17T06:04:45.189Z,62.11
2022-12-17T06:08:08.497Z,62.19
2022-12-17T06:11:32.069Z,62.20
2022-12-17T06:14:55.748Z,61.90
2022-12-17T06:18:19.519Z,62.25
2022-12-17T06:21:43.399Z,62.36
2022-12-17T06:25:06.463Z,62.07
2022-12-17T06:28:44.712Z,62.32
2022-12-17T06:32:08.247Z,62.49
2022-12-17T06:35:31.513Z,62.20
2022-12-17T06:38:54.775Z,61.79
2022-12-17T06:42:17.734Z,61.61
2022-12-17T06:45:41.206Z,61.92
2022-12-17T06:49:05.480Z,61.86
2022-12-17T06:52:28.790Z,62.24
2022-12-17T06:55:52.031Z,62.24
2022-12-17T06:59:15.286Z,61.97
2022-12-17T07:02:38.868Z,62.32
2022-12-17T07:06:02.633Z,62.48
2022-12-17T07:09:26.307Z,62.49
2022-12-17T07:12:49.878Z,62.29
2022-12-17T07:16:13.766Z,62.11
2022-12-17T07:19:37.329Z,61.82
2022-12-17T07:23:00.391Z,61.92
2022-12-17T07:26:24.181Z,61.60
2022-12-17T07:29:47.124Z,62.10
2022-12-17T07:33:18.017Z,61.55
2022-12-17T07:36:41.133Z,61.97
2022-12-17T07:40:04.597Z,62.14
2022-12-17T07:43:32.265Z,62.38
2022-12-17T07:46:55.150Z,62.31
2022-12-17T07:50:18.390Z,62.12
2022-12-17T07:53:41.773Z,61.90
2022-12-17T07:57:05.225Z,62.14
2022-12-17T08:00:31.151Z,61.84
2022-12-17T08:03:52.878Z,61.57
2022-12-17T08:07:16.142Z,61.55
2022-12-17T08:10:41.761Z,61.31
2022-12-17T08:14:05.380Z,61.59
2022-12-17T08:17:28.699Z,61.36
2022-12-17T08:20:52.164Z,61.19
2022-12-17T08:24:15.855Z,60.99
2022-12-17T08:27:39.209Z,60.25
2022-12-17T08:31:05.987Z,60.36
2022-12-17T08:34:29.631Z,59.92
2022-12-17T08:37:52.796Z,59.92
2022-12-17T08:41:18.040Z,59.87
2022-12-17T08:44:41.780Z,58.13
2022-12-17T08:48:04.956Z,58.35
2022-12-17T08:51:27.799Z,60.08
2022-12-17T08:54:51.165Z,61.00
2022-12-17T08:58:15.964Z,64.02
2022-12-17T09:01:53.919Z,65.48
2022-12-17T09:05:17.239Z,64.32
2022-12-17T09:08:40.709Z,63.53
2022-12-17T09:12:04.178Z,63.42
2022-12-17T09:15:28.671Z,62.97
2022-12-17T09:18:52.243Z,62.97
2022-12-17T09:22:15.208Z,62.66
2022-12-17T09:25:38.519Z,62.30
2022-12-17T09:29:01.657Z,61.62
2022-12-17T09:32:25.089Z,61.69
2022-12-17T09:35:48.253Z,60.90
2022-12-17T09:39:10.398Z,60.01
2022-12-17T09:42:45.550Z,59.77
2022-12-17T09:46:21.953Z,59.11
2022-12-17T09:49:47.531Z,57.81
2022-12-17T09:53:11.259Z,59.54
2022-12-17T09:56:37.238Z,60.81
2022-12-17T10:00:00.810Z,63.35
2022-12-17T10:03:29.133Z,63.61
2022-12-17T10:06:54.094Z,62.81
2022-12-17T10:10:22.683Z,62.10
2022-12-17T10:13:45.743Z,61.53
2022-12-17T10:17:12.073Z,61.03
2022-12-17T10:20:40.678Z,60.11
2022-12-17T10:24:03.832Z,57.23
2022-12-17T10:27:30.679Z,57.78
2022-12-17T10:30:51.324Z,58.89
2022-12-17T10:34:17.107Z,60.41
2022-12-17T10:37:41.191Z,63.06
2022-12-17T10:41:04.456Z,64.49
2022-12-17T10:44:43.798Z,63.01
2022-12-17T10:48:21.601Z,61.92
2022-12-17T10:51:51.215Z,61.42
2022-12-17T10:55:20.632Z,59.79
2022-12-17T10:58:48.293Z,58.85
2022-12-17T11:02:18.649Z,57.68
2022-12-17T11:05:46.392Z,59.08
2022-12-17T11:09:10.271Z,60.33
2022-12-17T11:12:35.893Z,63.25
2022-12-17T11:16:05.397Z,64.29
2022-12-17T11:19:50.374Z,63.88
2022-12-17T11:23:16.514Z,62.24
2022-12-17T11:26:52.422Z,61.36
2022-12-17T11:30:15.938Z,61.03
2022-12-17T11:33:58.779Z,60.43
2022-12-17T11:37:32.975Z,60.52
2022-12-17T11:41:00.549Z,59.79
2022-12-17T11:44:33.028Z,60.28
2022-12-17T11:48:06.021Z,59.85
2022-12-17T11:51:36.351Z,59.47
2022-12-17T11:55:21.727Z,57.90
2022-12-17T11:58:54.113Z,58.09
2022-12-17T12:02:25.506Z,59.87
2022-12-17T12:06:15.664Z,61.05
2022-12-17T12:09:47.426Z,64.31
2022-12-17T12:13:23.185Z,65.37
2022-12-17T12:16:52.385Z,63.55
2022-12-17T12:20:23.439Z,62.38
2022-12-17T12:23:56.945Z,61.86
2022-12-17T12:27:35.535Z,61.46
2022-12-17T12:31:13.193Z,61.21
2022-12-17T12:34:43.187Z,61.14
2022-12-17T12:38:06.861Z,60.92
2022-12-17T12:41:38.012Z,60.93
2022-12-17T12:45:08.037Z,60.46
2022-12-17T12:48:44.484Z,60.32
2022-12-17T12:52:10.954Z,60.23
2022-12-17T12:55:34.007Z,60.05
2022-12-17T12:58:56.351Z,59.96
2022-12-17T13:02:19.882Z,60.31
2022-12-17T13:55:28.585Z,61.77
2022-12-17T13:58:33.601Z,61.66
2022-12-17T14:01:46.141Z,61.52
2022-12-17T14:04:52.780Z,61.67
2022-12-17T14:07:58.620Z,61.35
2022-12-17T14:11:23.015Z,61.42
2022-12-17T14:14:31.633Z,61.18
2022-12-17T14:17:40.232Z,61.68
2022-12-17T14:20:43.555Z,61.64
2022-12-17T14:23:49.821Z,61.66
2022-12-17T14:26:52.782Z,61.63
2022-12-17T14:29:56.823Z,61.72
2022-12-17T14:32:59.944Z,61.67
2022-12-17T14:36:06.256Z,61.43
2022-12-17T14:39:17.664Z,61.38
2022-12-17T14:42:25.594Z,61.57
2022-12-17T14:45:29.177Z,61.54
2022-12-17T14:48:46.525Z,61.55
2022-12-17T14:51:50.264Z,61.75
2022-12-17T14:54:53.096Z,61.78
2022-12-17T14:58:14.816Z,61.76
2022-12-17T15:01:18.094Z,61.86
2022-12-17T15:04:21.969Z,62.33
2022-12-17T15:07:27.183Z,61.55
2022-12-17T15:10:29.929Z,61.49
2022-12-17T15:13:33.153Z,61.60
2022-12-17T15:16:35.952Z,61.53
2022-12-17T15:19:38.828Z,61.56
2022-12-17T15:22:41.627Z,61.34
2022-12-17T15:25:47.026Z,61.48
2022-12-17T15:28:50.546Z,61.49
2022-12-17T15:31:53.355Z,61.27
2022-12-17T15:34:56.121Z,61.35
2022-12-17T15:37:59.161Z,61.33
2022-12-17T15:41:22.897Z,61.33
2022-12-17T15:44:26.491Z,61.12
2022-12-17T15:47:29.376Z,60.73
2022-12-17T15:50:32.167Z,60.86
2022-12-17T15:53:35.560Z,61.00
2022-12-17T15:56:38.542Z,61.07
2022-12-17T15:59:41.323Z,60.95
2022-12-17T16:02:44.301Z,60.85
2022-12-17T16:05:47.337Z,60.94
2022-12-17T16:08:50.143Z,60.94
2022-12-17T16:11:54.421Z,60.91
2022-12-17T16:14:57.196Z,60.93
2022-12-17T16:17:59.990Z,61.06
2022-12-17T16:21:03.613Z,60.69
2022-12-17T16:24:07.680Z,61.04
2022-12-17T16:27:10.420Z,61.20
2022-12-17T16:30:14.891Z,61.20
2022-12-17T16:33:17.652Z,61.06
2022-12-17T16:36:21.812Z,61.22
2022-12-17T16:39:24.578Z,61.10
2022-12-17T16:42:27.595Z,61.07
2022-12-17T16:45:30.342Z,61.03
2022-12-17T16:48:38.480Z,60.87
2022-12-17T16:51:41.871Z,61.10
2022-12-17T16:54:44.662Z,61.21
2022-12-17T16:57:47.422Z,61.39
2022-12-17T17:00:55.005Z,61.18
2022-12-17T17:03:58.186Z,61.53
2022-12-17T17:07:01.228Z,61.34
2022-12-17T17:10:04.940Z,61.53
2022-12-17T17:13:07.740Z,61.86
2022-12-17T17:16:11.250Z,61.72
2022-12-17T17:19:14.348Z,61.80
2022-12-17T17:22:17.197Z,61.63
2022-12-17T17:25:19.981Z,61.69
2022-12-17T17:28:22.766Z,61.87
2022-12-17T17:31:46.483Z,61.81
2022-12-17T17:34:48.720Z,62.23
2022-12-17T17:37:51.460Z,61.95
2022-12-17T17:40:57.791Z,62.00
2022-12-17T17:44:00.234Z,62.67
2022-12-17T17:47:03.778Z,62.25
2022-12-17T17:50:08.413Z,62.06
2022-12-17T17:53:11.133Z,61.23
2022-12-17T17:56:16.908Z,61.28
2022-12-17T17:59:20.103Z,61.23
2022-12-17T18:02:22.998Z,61.02
2022-12-17T18:05:26.083Z,61.39
2022-12-17T18:08:30.311Z,61.30
2022-12-17T18:11:33.541Z,61.04
2022-12-17T18:14:41.840Z,60.99
2022-12-17T18:17:46.639Z,60.93
2022-12-17T18:20:49.399Z,61.09
2022-12-17T18:23:56.221Z,61.16
2022-12-17T18:26:59.088Z,61.40
2022-12-17T18:30:01.873Z,61.22
2022-12-17T18:33:04.840Z,61.38
2022-12-17T18:36:16.424Z,61.10
2022-12-17T18:39:21.690Z,61.20
2022-12-17T18:42:42.904Z,61.22
2022-12-17T18:45:46.003Z,61.19
2022-12-17T18:48:51.065Z,61.19
2022-12-17T18:51:55.915Z,61.40
2022-12-17T18:54:58.956Z,61.54
2022-12-17T18:58:01.745Z,61.46
2022-12-17T19:01:05.380Z,61.45
2022-12-17T19:04:12.027Z,61.31
2022-12-17T19:07:15.756Z,61.42
2022-12-17T19:10:18.870Z,61.47
2022-12-17T19:13:21.942Z,61.23
2022-12-17T19:16:27.272Z,61.35
2022-12-17T19:19:30.250Z,61.57
2022-12-17T19:22:33.324Z,61.55
2022-12-17T19:25:36.420Z,61.58
2022-12-17T19:28:40.527Z,61.56
2022-12-17T19:31:46.741Z,61.55
2022-12-17T19:34:49.596Z,61.58
2022-12-17T19:37:53.373Z,61.91
2022-12-17T19:40:56.396Z,61.87
2022-12-17T19:44:04.604Z,61.98
2022-12-17T19:47:07.849Z,61.93
2022-12-17T19:50:12.057Z,61.85
2022-12-17T19:53:14.833Z,61.93
2022-12-17T19:56:20.059Z,61.75
2022-12-17T19:59:23.421Z,61.93
2022-12-17T20:02:32.315Z,62.12
2022-12-17T20:05:36.367Z,62.01
2022-12-17T20:08:40.554Z,61.92
2022-12-17T20:11:53.286Z,61.79
2022-12-17T20:14:58.305Z,61.79
2022-12-17T20:18:01.364Z,61.81
2022-12-17T20:21:06.938Z,61.76
2022-12-17T20:24:11.501Z,61.63
2022-12-17T20:27:14.661Z,62.02
2022-12-17T20:30:22.197Z,61.94
2022-12-17T20:33:25.505Z,62.09
2022-12-17T20:36:44.152Z,62.41
2022-12-17T20:39:47.301Z,62.62
2022-12-17T20:42:52.400Z,62.57
2022-12-17T20:45:55.619Z,62.62
2022-12-17T20:49:00.014Z,62.62
2022-12-17T20:52:03.292Z,62.26
2022-12-17T20:55:07.851Z,62.17
2022-12-17T20:58:12.947Z,62.58
2022-12-17T21:01:18.862Z,62.73
2022-12-17T21:04:22.131Z,62.60
2022-12-17T21:07:24.952Z,62.44
2022-12-17T21:10:28.209Z,62.59
2022-12-17T21:13:31.325Z,62.65
2022-12-17T21:16:35.166Z,62.76
2022-12-17T21:19:38.085Z,63.11
2022-12-17T21:22:42.442Z,63.00
2022-12-17T21:25:45.306Z,63.08
2022-12-17T21:28:50.473Z,62.88
2022-12-17T21:31:53.332Z,62.58
2022-12-17T21:34:56.424Z,62.95
2022-12-17T21:37:59.152Z,63.01
2022-12-17T21:41:07.142Z,62.93
2022-12-17T21:44:12.758Z,63.08
2022-12-17T21:47:16.289Z,62.77
2022-12-17T21:50:20.690Z,62.69
2022-12-17T21:53:23.848Z,62.85
2022-12-17T21:56:27.184Z,62.71
2022-12-17T21:59:31.067Z,62.31
2022-12-17T22:02:34.330Z,62.50
2022-12-17T22:05:38.676Z,62.17
2022-12-17T22:08:42.727Z,62.32
2022-12-17T22:11:45.896Z,62.08
2022-12-17T22:14:48.905Z,61.94
2022-12-17T22:17:53.430Z,62.04
2022-12-17T22:21:01.825Z,62.25
2022-12-17T22:24:06.348Z,61.80
2022-12-17T22:27:09.727Z,61.73
2022-12-17T22:30:34.168Z,61.41
2022-12-17T22:34:07.252Z,61.50
2022-12-17T22:38:29.360Z,61.33
2022-12-17T22:44:29.672Z,61.11
2022-12-17T22:44:42.340Z,61.15
2022-12-17T22:47:08.033Z,60.96
2022-12-17T22:50:11.492Z,61.37
2022-12-17T22:53:14.747Z,61.49
2022-12-17T22:56:35.689Z,61.46
2022-12-17T22:59:41.586Z,61.34
2022-12-17T23:02:44.381Z,61.55
2022-12-17T23:05:47.176Z,61.48
2022-12-17T23:08:50.423Z,61.61
2022-12-17T23:11:53.276Z,61.00
2022-12-17T23:14:56.045Z,61.16
2022-12-17T23:18:01.005Z,61.08
2022-12-17T23:21:08.196Z,60.77
2022-12-17T23:24:11.082Z,60.45
2022-12-17T23:27:13.808Z,60.23
2022-12-17T23:30:17.767Z,59.79
2022-12-17T23:33:20.552Z,60.10
2022-12-17T23:36:25.071Z,60.45
2022-12-17T23:39:27.874Z,60.09
2022-12-17T23:42:30.851Z,60.41
2022-12-17T23:45:33.604Z,60.22
2022-12-17T23:48:44.822Z,60.40
2022-12-17T23:51:48.421Z,60.72
2022-12-17T23:54:51.187Z,60.80
2022-12-17T23:57:55.962Z,60.85
